sensor_id;sensor_type;location;lat;lon;timestamp;P1;durP1;ratioP1;P2;durP2;ratioP2
20348;SDS011;10332;50.208;18.988;2023-03-23T00:01:12;20.05;;;13.00;;
20348;SDS011;10332;50.208;18.988;2023-03-23T00:03:46;18.02;;;12.02;;
20348;SDS011;10332;50.208;18.988;2023-03-23T00:06:20;18.30;;;12.43;;
20348;SDS011;10332;50.208;18.988;2023-03-23T00:08:58;19.38;;;12.30;;
20348;SDS011;10332;50.208;18.988;2023-03-23T00:11:29;20.15;;;13.40;;
20348;SDS011;10332;50.208;18.988;2023-03-23T00:14:00;18.48;;;12.57;;
20348;SDS011;10332;50.208;18.988;2023-03-23T00:16:28;21.83;;;14.02;;
20348;SDS011;10332;50.208;18.988;2023-03-23T00:18:58;19.58;;;13.10;;
20348;SDS011;10332;50.208;18.988;2023-03-23T00:21:32;25.58;;;16.30;;
20348;SDS011;10332;50.208;18.988;2023-03-23T00:24:03;26.35;;;17.17;;
20348;SDS011;10332;50.208;18.988;2023-03-23T00:26:37;26.25;;;17.38;;
20348;SDS011;10332;50.208;18.988;2023-03-23T00:29:07;25.85;;;16.30;;
20348;SDS011;10332;50.208;18.988;2023-03-23T00:31:40;21.67;;;15.02;;
20348;SDS011;10332;50.208;18.988;2023-03-23T00:34:13;26.38;;;17.35;;
20348;SDS011;10332;50.208;18.988;2023-03-23T00:36:48;24.67;;;15.73;;
20348;SDS011;10332;50.208;18.988;2023-03-23T00:39:18;22.70;;;13.63;;
20348;SDS011;10332;50.208;18.988;2023-03-23T00:41:45;22.63;;;13.38;;
20348;SDS011;10332;50.208;18.988;2023-03-23T00:44:13;20.08;;;12.95;;
20348;SDS011;10332;50.208;18.988;2023-03-23T00:46:48;19.58;;;12.75;;
20348;SDS011;10332;50.208;18.988;2023-03-23T00:49:16;21.10;;;13.48;;
20348;SDS011;10332;50.208;18.988;2023-03-23T00:51:45;23.35;;;15.48;;
20348;SDS011;10332;50.208;18.988;2023-03-23T00:54:12;22.92;;;13.48;;
20348;SDS011;10332;50.208;18.988;2023-03-23T00:56:38;18.77;;;12.23;;
20348;SDS011;10332;50.208;18.988;2023-03-23T00:59:06;22.52;;;13.52;;
20348;SDS011;10332;50.208;18.988;2023-03-23T01:01:33;19.08;;;12.95;;
20348;SDS011;10332;50.208;18.988;2023-03-23T01:04:02;25.10;;;14.38;;
20348;SDS011;10332;50.208;18.988;2023-03-23T01:06:34;18.98;;;12.65;;
20348;SDS011;10332;50.208;18.988;2023-03-23T01:09:06;17.20;;;12.82;;
20348;SDS011;10332;50.208;18.988;2023-03-23T01:11:45;19.60;;;12.95;;
20348;SDS011;10332;50.208;18.988;2023-03-23T01:14:14;21.42;;;14.20;;
20348;SDS011;10332;50.208;18.988;2023-03-23T01:16:43;22.13;;;13.27;;
20348;SDS011;10332;50.208;18.988;2023-03-23T01:19:10;21.95;;;12.90;;
20348;SDS011;10332;50.208;18.988;2023-03-23T01:21:36;22.20;;;13.30;;
20348;SDS011;10332;50.208;18.988;2023-03-23T01:24:03;19.10;;;12.98;;
20348;SDS011;10332;50.208;18.988;2023-03-23T01:26:30;21.00;;;13.35;;
20348;SDS011;10332;50.208;18.988;2023-03-23T01:28:57;20.50;;;12.95;;
20348;SDS011;10332;50.208;18.988;2023-03-23T01:31:24;21.35;;;12.70;;
20348;SDS011;10332;50.208;18.988;2023-03-23T01:33:52;21.38;;;13.30;;
20348;SDS011;10332;50.208;18.988;2023-03-23T01:36:24;22.10;;;13.63;;
20348;SDS011;10332;50.208;18.988;2023-03-23T01:38:54;24.08;;;14.45;;
20348;SDS011;10332;50.208;18.988;2023-03-23T01:41:23;17.55;;;12.55;;
20348;SDS011;10332;50.208;18.988;2023-03-23T01:43:54;21.90;;;14.00;;
20348;SDS011;10332;50.208;18.988;2023-03-23T01:46:27;28.98;;;13.75;;
20348;SDS011;10332;50.208;18.988;2023-03-23T01:49:00;19.90;;;12.90;;
20348;SDS011;10332;50.208;18.988;2023-03-23T01:51:43;15.60;;;11.85;;
20348;SDS011;10332;50.208;18.988;2023-03-23T01:54:18;18.30;;;11.43;;
20348;SDS011;10332;50.208;18.988;2023-03-23T01:56:47;18.15;;;11.75;;
20348;SDS011;10332;50.208;18.988;2023-03-23T01:59:43;17.58;;;12.57;;
20348;SDS011;10332;50.208;18.988;2023-03-23T02:02:15;20.25;;;13.43;;
20348;SDS011;10332;50.208;18.988;2023-03-23T02:04:43;16.67;;;12.15;;
20348;SDS011;10332;50.208;18.988;2023-03-23T02:07:09;19.48;;;12.43;;
20348;SDS011;10332;50.208;18.988;2023-03-23T02:09:39;18.13;;;11.88;;
20348;SDS011;10332;50.208;18.988;2023-03-23T02:12:06;18.48;;;12.43;;
20348;SDS011;10332;50.208;18.988;2023-03-23T02:14:32;16.60;;;11.85;;
20348;SDS011;10332;50.208;18.988;2023-03-23T02:20:01;19.38;;;11.73;;
20348;SDS011;10332;50.208;18.988;2023-03-23T02:23:04;17.90;;;11.82;;
20348;SDS011;10332;50.208;18.988;2023-03-23T02:29:48;19.25;;;12.48;;
20348;SDS011;10332;50.208;18.988;2023-03-23T02:35:52;19.75;;;12.23;;
20348;SDS011;10332;50.208;18.988;2023-03-23T02:38:35;16.83;;;12.23;;
20348;SDS011;10332;50.208;18.988;2023-03-23T02:41:35;20.00;;;13.38;;
20348;SDS011;10332;50.208;18.988;2023-03-23T02:44:17;19.02;;;13.23;;
20348;SDS011;10332;50.208;18.988;2023-03-23T02:46:44;20.27;;;12.80;;
20348;SDS011;10332;50.208;18.988;2023-03-23T02:49:14;21.70;;;13.05;;
20348;SDS011;10332;50.208;18.988;2023-03-23T02:51:43;18.48;;;12.73;;
20348;SDS011;10332;50.208;18.988;2023-03-23T02:54:14;19.75;;;12.50;;
20348;SDS011;10332;50.208;18.988;2023-03-23T02:56:44;16.70;;;10.85;;
20348;SDS011;10332;50.208;18.988;2023-03-23T02:59:12;17.45;;;11.82;;
20348;SDS011;10332;50.208;18.988;2023-03-23T03:04:11;16.85;;;10.80;;
20348;SDS011;10332;50.208;18.988;2023-03-23T03:17:33;16.58;;;10.85;;
20348;SDS011;10332;50.208;18.988;2023-03-23T03:20:09;17.90;;;10.90;;
20348;SDS011;10332;50.208;18.988;2023-03-23T03:22:39;18.67;;;9.73;;
20348;SDS011;10332;50.208;18.988;2023-03-23T03:25:10;14.40;;;10.68;;
20348;SDS011;10332;50.208;18.988;2023-03-23T03:27:42;19.55;;;10.80;;
20348;SDS011;10332;50.208;18.988;2023-03-23T03:30:15;17.17;;;9.63;;
20348;SDS011;10332;50.208;18.988;2023-03-23T03:32:49;15.52;;;10.15;;
20348;SDS011;10332;50.208;18.988;2023-03-23T03:35:20;13.80;;;9.73;;
20348;SDS011;10332;50.208;18.988;2023-03-23T03:37:48;19.90;;;10.23;;
20348;SDS011;10332;50.208;18.988;2023-03-23T03:40:17;16.02;;;9.35;;
20348;SDS011;10332;50.208;18.988;2023-03-23T03:42:46;13.63;;;9.00;;
20348;SDS011;10332;50.208;18.988;2023-03-23T03:45:14;13.05;;;9.57;;
20348;SDS011;10332;50.208;18.988;2023-03-23T03:47:44;13.77;;;9.57;;
20348;SDS011;10332;50.208;18.988;2023-03-23T03:50:11;15.23;;;9.52;;
20348;SDS011;10332;50.208;18.988;2023-03-23T03:52:38;13.77;;;9.52;;
20348;SDS011;10332;50.208;18.988;2023-03-23T03:55:06;15.35;;;9.90;;
20348;SDS011;10332;50.208;18.988;2023-03-23T03:57:34;16.13;;;9.85;;
20348;SDS011;10332;50.208;18.988;2023-03-23T04:00:02;16.23;;;9.80;;
20348;SDS011;10332;50.208;18.988;2023-03-23T04:02:41;14.10;;;9.48;;
20348;SDS011;10332;50.208;18.988;2023-03-23T04:05:20;16.00;;;8.98;;
20348;SDS011;10332;50.208;18.988;2023-03-23T04:07:48;14.23;;;8.95;;
20348;SDS011;10332;50.208;18.988;2023-03-23T04:10:18;18.17;;;10.05;;
20348;SDS011;10332;50.208;18.988;2023-03-23T04:12:47;16.00;;;9.48;;
20348;SDS011;10332;50.208;18.988;2023-03-23T04:15:15;14.23;;;8.90;;
20348;SDS011;10332;50.208;18.988;2023-03-23T04:17:41;16.40;;;10.05;;
20348;SDS011;10332;50.208;18.988;2023-03-23T04:20:08;13.60;;;8.70;;
20348;SDS011;10332;50.208;18.988;2023-03-23T04:22:46;15.20;;;8.75;;
20348;SDS011;10332;50.208;18.988;2023-03-23T04:25:18;16.10;;;9.57;;
20348;SDS011;10332;50.208;18.988;2023-03-23T04:27:47;17.27;;;10.23;;
20348;SDS011;10332;50.208;18.988;2023-03-23T04:30:22;16.80;;;10.10;;
20348;SDS011;10332;50.208;18.988;2023-03-23T04:32:52;16.25;;;9.60;;
20348;SDS011;10332;50.208;18.988;2023-03-23T04:35:23;19.08;;;10.60;;
20348;SDS011;10332;50.208;18.988;2023-03-23T04:37:51;14.70;;;9.60;;
20348;SDS011;10332;50.208;18.988;2023-03-23T04:40:19;19.15;;;10.23;;
20348;SDS011;10332;50.208;18.988;2023-03-23T04:42:46;13.95;;;9.43;;
20348;SDS011;10332;50.208;18.988;2023-03-23T04:45:13;16.92;;;9.80;;
20348;SDS011;10332;50.208;18.988;2023-03-23T04:47:47;19.08;;;10.05;;
20348;SDS011;10332;50.208;18.988;2023-03-23T04:50:24;16.75;;;9.90;;
20348;SDS011;10332;50.208;18.988;2023-03-23T04:52:56;15.85;;;9.90;;
20348;SDS011;10332;50.208;18.988;2023-03-23T04:55:25;15.80;;;9.23;;
20348;SDS011;10332;50.208;18.988;2023-03-23T04:57:51;14.90;;;9.38;;
20348;SDS011;10332;50.208;18.988;2023-03-23T05:00:18;15.23;;;9.77;;
20348;SDS011;10332;50.208;18.988;2023-03-23T05:02:46;15.57;;;10.05;;
20348;SDS011;10332;50.208;18.988;2023-03-23T05:05:17;15.52;;;9.95;;
20348;SDS011;10332;50.208;18.988;2023-03-23T05:07:45;15.15;;;9.27;;
20348;SDS011;10332;50.208;18.988;2023-03-23T05:10:12;14.07;;;9.27;;
20348;SDS011;10332;50.208;18.988;2023-03-23T05:12:40;14.52;;;9.40;;
20348;SDS011;10332;50.208;18.988;2023-03-23T05:15:09;14.57;;;9.23;;
20348;SDS011;10332;50.208;18.988;2023-03-23T05:17:38;14.57;;;9.43;;
20348;SDS011;10332;50.208;18.988;2023-03-23T05:20:06;15.10;;;9.00;;
20348;SDS011;10332;50.208;18.988;2023-03-23T05:22:36;15.82;;;9.57;;
20348;SDS011;10332;50.208;18.988;2023-03-23T05:25:07;14.27;;;9.05;;
20348;SDS011;10332;50.208;18.988;2023-03-23T05:27:35;12.32;;;7.75;;
20348;SDS011;10332;50.208;18.988;2023-03-23T05:30:03;11.32;;;7.57;;
20348;SDS011;10332;50.208;18.988;2023-03-23T05:32:32;11.73;;;7.35;;
20348;SDS011;10332;50.208;18.988;2023-03-23T05:34:58;12.65;;;7.78;;
20348;SDS011;10332;50.208;18.988;2023-03-23T05:37:27;11.38;;;7.38;;
20348;SDS011;10332;50.208;18.988;2023-03-23T05:39:58;10.77;;;7.60;;
20348;SDS011;10332;50.208;18.988;2023-03-23T05:42:26;12.10;;;7.68;;
20348;SDS011;10332;50.208;18.988;2023-03-23T05:44:53;14.32;;;8.43;;
20348;SDS011;10332;50.208;18.988;2023-03-23T05:47:19;15.20;;;8.23;;
20348;SDS011;10332;50.208;18.988;2023-03-23T05:49:45;12.20;;;8.40;;
20348;SDS011;10332;50.208;18.988;2023-03-23T05:52:12;14.77;;;9.18;;
20348;SDS011;10332;50.208;18.988;2023-03-23T05:54:39;12.27;;;8.15;;
20348;SDS011;10332;50.208;18.988;2023-03-23T05:57:06;12.85;;;8.30;;
20348;SDS011;10332;50.208;18.988;2023-03-23T05:59:35;16.52;;;9.02;;
20348;SDS011;10332;50.208;18.988;2023-03-23T06:02:01;12.30;;;8.18;;
20348;SDS011;10332;50.208;18.988;2023-03-23T06:04:27;12.73;;;7.65;;
20348;SDS011;10332;50.208;18.988;2023-03-23T06:06:54;12.18;;;7.88;;
20348;SDS011;10332;50.208;18.988;2023-03-23T06:09:20;12.13;;;7.70;;
20348;SDS011;10332;50.208;18.988;2023-03-23T06:11:48;12.23;;;7.55;;
20348;SDS011;10332;50.208;18.988;2023-03-23T06:14:15;12.18;;;8.00;;
20348;SDS011;10332;50.208;18.988;2023-03-23T06:16:42;10.80;;;7.70;;
20348;SDS011;10332;50.208;18.988;2023-03-23T06:19:09;10.80;;;6.60;;
20348;SDS011;10332;50.208;18.988;2023-03-23T06:21:36;10.13;;;6.63;;
20348;SDS011;10332;50.208;18.988;2023-03-23T06:24:03;13.25;;;7.47;;
20348;SDS011;10332;50.208;18.988;2023-03-23T06:26:31;11.68;;;6.57;;
20348;SDS011;10332;50.208;18.988;2023-03-23T06:29:02;12.68;;;7.28;;
20348;SDS011;10332;50.208;18.988;2023-03-23T06:31:40;12.60;;;7.50;;
20348;SDS011;10332;50.208;18.988;2023-03-23T06:34:10;10.98;;;7.20;;
20348;SDS011;10332;50.208;18.988;2023-03-23T06:36:37;12.30;;;7.30;;
20348;SDS011;10332;50.208;18.988;2023-03-23T06:39:04;12.02;;;7.30;;
20348;SDS011;10332;50.208;18.988;2023-03-23T06:41:31;9.77;;;6.88;;
20348;SDS011;10332;50.208;18.988;2023-03-23T06:43:59;13.60;;;7.20;;
20348;SDS011;10332;50.208;18.988;2023-03-23T06:46:26;10.20;;;6.47;;
20348;SDS011;10332;50.208;18.988;2023-03-23T06:49:00;10.80;;;7.07;;
20348;SDS011;10332;50.208;18.988;2023-03-23T06:51:27;12.18;;;7.45;;
20348;SDS011;10332;50.208;18.988;2023-03-23T06:53:53;11.40;;;7.13;;
20348;SDS011;10332;50.208;18.988;2023-03-23T06:56:19;13.05;;;7.55;;
20348;SDS011;10332;50.208;18.988;2023-03-23T06:58:46;11.65;;;6.68;;
20348;SDS011;10332;50.208;18.988;2023-03-23T07:01:13;14.50;;;7.50;;
20348;SDS011;10332;50.208;18.988;2023-03-23T07:03:40;10.82;;;7.15;;
20348;SDS011;10332;50.208;18.988;2023-03-23T07:06:08;11.63;;;7.00;;
20348;SDS011;10332;50.208;18.988;2023-03-23T07:08:35;9.25;;;6.55;;
20348;SDS011;10332;50.208;18.988;2023-03-23T07:11:02;11.45;;;7.45;;
20348;SDS011;10332;50.208;18.988;2023-03-23T07:13:30;8.60;;;6.20;;
20348;SDS011;10332;50.208;18.988;2023-03-23T07:15:57;11.63;;;6.25;;
20348;SDS011;10332;50.208;18.988;2023-03-23T07:18:24;10.52;;;6.50;;
20348;SDS011;10332;50.208;18.988;2023-03-23T07:20:52;10.18;;;6.32;;
20348;SDS011;10332;50.208;18.988;2023-03-23T07:23:19;9.02;;;6.28;;
20348;SDS011;10332;50.208;18.988;2023-03-23T07:25:46;10.43;;;6.20;;
20348;SDS011;10332;50.208;18.988;2023-03-23T07:28:14;9.02;;;5.88;;
20348;SDS011;10332;50.208;18.988;2023-03-23T07:30:41;9.45;;;6.05;;
20348;SDS011;10332;50.208;18.988;2023-03-23T07:33:08;8.05;;;5.60;;
20348;SDS011;10332;50.208;18.988;2023-03-23T07:35:36;13.07;;;6.65;;
20348;SDS011;10332;50.208;18.988;2023-03-23T07:38:03;9.40;;;6.38;;
20348;SDS011;10332;50.208;18.988;2023-03-23T07:40:32;9.52;;;6.15;;
20348;SDS011;10332;50.208;18.988;2023-03-23T07:42:59;9.80;;;6.47;;
20348;SDS011;10332;50.208;18.988;2023-03-23T07:45:28;14.95;;;7.20;;
20348;SDS011;10332;50.208;18.988;2023-03-23T07:47:56;10.50;;;6.05;;
20348;SDS011;10332;50.208;18.988;2023-03-23T07:50:23;8.95;;;5.72;;
20348;SDS011;10332;50.208;18.988;2023-03-23T07:52:50;6.72;;;5.00;;
20348;SDS011;10332;50.208;18.988;2023-03-23T07:55:20;8.38;;;5.85;;
20348;SDS011;10332;50.208;18.988;2023-03-23T07:57:47;9.82;;;6.50;;
20348;SDS011;10332;50.208;18.988;2023-03-23T08:00:15;8.95;;;6.43;;
20348;SDS011;10332;50.208;18.988;2023-03-23T08:02:50;14.40;;;6.70;;
20348;SDS011;10332;50.208;18.988;2023-03-23T08:05:21;12.00;;;6.88;;
20348;SDS011;10332;50.208;18.988;2023-03-23T08:07:51;9.43;;;6.40;;
20348;SDS011;10332;50.208;18.988;2023-03-23T08:10:23;9.13;;;6.45;;
20348;SDS011;10332;50.208;18.988;2023-03-23T08:12:51;9.05;;;6.18;;
20348;SDS011;10332;50.208;18.988;2023-03-23T08:15:21;9.45;;;6.43;;
20348;SDS011;10332;50.208;18.988;2023-03-23T08:17:49;8.20;;;6.22;;
20348;SDS011;10332;50.208;18.988;2023-03-23T08:20:17;8.15;;;5.57;;
20348;SDS011;10332;50.208;18.988;2023-03-23T08:22:45;8.98;;;6.00;;
20348;SDS011;10332;50.208;18.988;2023-03-23T08:25:21;7.65;;;6.07;;
20348;SDS011;10332;50.208;18.988;2023-03-23T08:27:50;7.80;;;5.25;;
20348;SDS011;10332;50.208;18.988;2023-03-23T08:30:17;6.78;;;5.25;;
20348;SDS011;10332;50.208;18.988;2023-03-23T08:32:46;8.35;;;5.93;;
20348;SDS011;10332;50.208;18.988;2023-03-23T08:35:14;6.60;;;5.18;;
20348;SDS011;10332;50.208;18.988;2023-03-23T08:37:42;6.65;;;5.38;;
20348;SDS011;10332;50.208;18.988;2023-03-23T08:40:13;6.90;;;4.88;;
20348;SDS011;10332;50.208;18.988;2023-03-23T08:42:43;6.03;;;4.35;;
20348;SDS011;10332;50.208;18.988;2023-03-23T08:45:13;5.18;;;4.65;;
20348;SDS011;10332;50.208;18.988;2023-03-23T08:47:43;6.68;;;4.82;;
20348;SDS011;10332;50.208;18.988;2023-03-23T08:50:18;7.22;;;5.00;;
20348;SDS011;10332;50.208;18.988;2023-03-23T08:52:49;7.00;;;5.00;;
20348;SDS011;10332;50.208;18.988;2023-03-23T08:55:18;8.48;;;5.72;;
20348;SDS011;10332;50.208;18.988;2023-03-23T08:57:47;7.63;;;5.05;;
20348;SDS011;10332;50.208;18.988;2023-03-23T09:00:18;10.07;;;5.15;;
20348;SDS011;10332;50.208;18.988;2023-03-23T09:02:48;7.00;;;4.72;;
20348;SDS011;10332;50.208;18.988;2023-03-23T09:05:18;6.53;;;4.85;;
20348;SDS011;10332;50.208;18.988;2023-03-23T09:07:51;8.55;;;5.28;;
20348;SDS011;10332;50.208;18.988;2023-03-23T09:10:21;7.72;;;4.80;;
20348;SDS011;10332;50.208;18.988;2023-03-23T09:12:48;9.70;;;5.40;;
20348;SDS011;10332;50.208;18.988;2023-03-23T09:15:15;10.00;;;5.22;;
20348;SDS011;10332;50.208;18.988;2023-03-23T09:17:45;7.25;;;4.75;;
20348;SDS011;10332;50.208;18.988;2023-03-23T09:20:16;8.00;;;5.30;;
20348;SDS011;10332;50.208;18.988;2023-03-23T09:22:47;7.68;;;5.05;;
20348;SDS011;10332;50.208;18.988;2023-03-23T09:25:22;6.40;;;4.60;;
20348;SDS011;10332;50.208;18.988;2023-03-23T09:27:53;6.28;;;4.30;;
20348;SDS011;10332;50.208;18.988;2023-03-23T09:30:24;6.00;;;4.60;;
20348;SDS011;10332;50.208;18.988;2023-03-23T09:32:53;7.70;;;4.97;;
20348;SDS011;10332;50.208;18.988;2023-03-23T09:35:21;8.02;;;5.40;;
20348;SDS011;10332;50.208;18.988;2023-03-23T09:37:48;6.40;;;4.70;;
20348;SDS011;10332;50.208;18.988;2023-03-23T09:40:18;7.95;;;4.88;;
20348;SDS011;10332;50.208;18.988;2023-03-23T09:48:47;9.95;;;6.00;;
20348;SDS011;10332;50.208;18.988;2023-03-23T09:54:12;11.25;;;6.50;;
20348;SDS011;10332;50.208;18.988;2023-03-23T09:56:50;13.80;;;7.82;;
20348;SDS011;10332;50.208;18.988;2023-03-23T09:59:19;10.68;;;6.95;;
20348;SDS011;10332;50.208;18.988;2023-03-23T10:02:12;10.02;;;6.60;;
20348;SDS011;10332;50.208;18.988;2023-03-23T10:05:03;10.23;;;6.75;;
20348;SDS011;10332;50.208;18.988;2023-03-23T10:07:51;9.23;;;6.07;;
20348;SDS011;10332;50.208;18.988;2023-03-23T10:10:17;11.43;;;5.60;;
20348;SDS011;10332;50.208;18.988;2023-03-23T10:12:48;7.13;;;4.88;;
20348;SDS011;10332;50.208;18.988;2023-03-23T10:15:42;6.90;;;4.72;;
20348;SDS011;10332;50.208;18.988;2023-03-23T10:21:14;8.18;;;4.78;;
20348;SDS011;10332;50.208;18.988;2023-03-23T10:23:53;9.93;;;5.07;;
20348;SDS011;10332;50.208;18.988;2023-03-23T10:26:37;5.78;;;4.30;;
20348;SDS011;10332;50.208;18.988;2023-03-23T10:29:29;8.35;;;4.35;;
20348;SDS011;10332;50.208;18.988;2023-03-23T10:32:08;10.75;;;4.88;;
20348;SDS011;10332;50.208;18.988;2023-03-23T10:34:55;8.00;;;5.13;;
20348;SDS011;10332;50.208;18.988;2023-03-23T10:37:29;5.65;;;3.58;;
20348;SDS011;10332;50.208;18.988;2023-03-23T10:40:05;8.27;;;4.50;;
20348;SDS011;10332;50.208;18.988;2023-03-23T10:42:40;7.53;;;4.22;;
20348;SDS011;10332;50.208;18.988;2023-03-23T10:45:22;9.43;;;4.25;;
20348;SDS011;10332;50.208;18.988;2023-03-23T10:47:59;7.40;;;4.43;;
20348;SDS011;10332;50.208;18.988;2023-03-23T10:50:54;9.48;;;3.97;;
20348;SDS011;10332;50.208;18.988;2023-03-23T10:53:30;7.82;;;3.75;;
20348;SDS011;10332;50.208;18.988;2023-03-23T10:56:04;6.03;;;3.47;;
20348;SDS011;10332;50.208;18.988;2023-03-23T10:58:47;10.30;;;3.90;;
20348;SDS011;10332;50.208;18.988;2023-03-23T11:01:14;8.23;;;4.00;;
20348;SDS011;10332;50.208;18.988;2023-03-23T11:03:47;6.75;;;4.13;;
20348;SDS011;10332;50.208;18.988;2023-03-23T11:06:22;6.05;;;3.70;;
20348;SDS011;10332;50.208;18.988;2023-03-23T11:12:00;9.18;;;4.40;;
20348;SDS011;10332;50.208;18.988;2023-03-23T11:14:28;9.55;;;4.63;;
20348;SDS011;10332;50.208;18.988;2023-03-23T11:16:59;6.95;;;3.97;;
20348;SDS011;10332;50.208;18.988;2023-03-23T11:19:38;6.25;;;3.45;;
20348;SDS011;10332;50.208;18.988;2023-03-23T11:22:12;7.90;;;4.38;;
20348;SDS011;10332;50.208;18.988;2023-03-23T11:24:52;7.72;;;3.70;;
20348;SDS011;10332;50.208;18.988;2023-03-23T11:27:23;6.25;;;3.63;;
20348;SDS011;10332;50.208;18.988;2023-03-23T11:29:54;5.80;;;3.55;;
20348;SDS011;10332;50.208;18.988;2023-03-23T11:32:26;6.75;;;3.70;;
20348;SDS011;10332;50.208;18.988;2023-03-23T11:34:57;7.88;;;4.07;;
20348;SDS011;10332;50.208;18.988;2023-03-23T11:40:15;9.38;;;3.83;;
20348;SDS011;10332;50.208;18.988;2023-03-23T11:56:34;6.72;;;3.92;;
20348;SDS011;10332;50.208;18.988;2023-03-23T11:59:27;12.10;;;4.47;;
20348;SDS011;10332;50.208;18.988;2023-03-23T12:10:06;8.02;;;4.32;;
20348;SDS011;10332;50.208;18.988;2023-03-23T12:15:34;6.63;;;4.05;;
20348;SDS011;10332;50.208;18.988;2023-03-23T12:26:56;7.68;;;3.83;;
20348;SDS011;10332;50.208;18.988;2023-03-23T12:38:54;6.25;;;3.75;;
20348;SDS011;10332;50.208;18.988;2023-03-23T12:44:33;6.57;;;3.72;;
20348;SDS011;10332;50.208;18.988;2023-03-23T12:47:17;4.20;;;3.10;;
20348;SDS011;10332;50.208;18.988;2023-03-23T12:55:25;5.95;;;2.97;;
20348;SDS011;10332;50.208;18.988;2023-03-23T12:58:28;6.78;;;3.45;;
20348;SDS011;10332;50.208;18.988;2023-03-23T13:01:10;5.97;;;3.40;;
20348;SDS011;10332;50.208;18.988;2023-03-23T13:03:52;6.50;;;3.28;;
20348;SDS011;10332;50.208;18.988;2023-03-23T13:06:32;5.50;;;3.20;;
20348;SDS011;10332;50.208;18.988;2023-03-23T13:11:55;4.85;;;3.53;;
20348;SDS011;10332;50.208;18.988;2023-03-23T13:17:54;5.90;;;2.95;;
20348;SDS011;10332;50.208;18.988;2023-03-23T13:25:54;5.93;;;3.03;;
20348;SDS011;10332;50.208;18.988;2023-03-23T13:28:27;5.68;;;2.83;;
20348;SDS011;10332;50.208;18.988;2023-03-23T13:30:58;4.82;;;3.25;;
20348;SDS011;10332;50.208;18.988;2023-03-23T13:33:38;6.60;;;3.38;;
20348;SDS011;10332;50.208;18.988;2023-03-23T13:36:12;3.83;;;2.78;;
20348;SDS011;10332;50.208;18.988;2023-03-23T13:38:46;4.65;;;2.72;;
20348;SDS011;10332;50.208;18.988;2023-03-23T13:41:16;5.30;;;3.17;;
20348;SDS011;10332;50.208;18.988;2023-03-23T13:43:47;5.82;;;3.42;;
20348;SDS011;10332;50.208;18.988;2023-03-23T13:46:27;5.93;;;3.65;;
20348;SDS011;10332;50.208;18.988;2023-03-23T13:49:31;6.53;;;3.55;;
20348;SDS011;10332;50.208;18.988;2023-03-23T13:54:38;5.72;;;3.03;;
20348;SDS011;10332;50.208;18.988;2023-03-23T13:58:20;5.30;;;3.00;;
20348;SDS011;10332;50.208;18.988;2023-03-23T14:03:45;5.93;;;3.45;;
20348;SDS011;10332;50.208;18.988;2023-03-23T14:18:55;6.53;;;3.83;;
20348;SDS011;10332;50.208;18.988;2023-03-23T14:21:32;5.40;;;3.58;;
20348;SDS011;10332;50.208;18.988;2023-03-23T14:24:10;8.55;;;3.63;;
20348;SDS011;10332;50.208;18.988;2023-03-23T14:26:43;4.82;;;3.03;;
20348;SDS011;10332;50.208;18.988;2023-03-23T14:29:11;8.68;;;4.88;;
20348;SDS011;10332;50.208;18.988;2023-03-23T14:31:39;6.63;;;3.90;;
20348;SDS011;10332;50.208;18.988;2023-03-23T14:34:16;9.50;;;4.40;;
20348;SDS011;10332;50.208;18.988;2023-03-23T14:36:47;5.57;;;3.45;;
20348;SDS011;10332;50.208;18.988;2023-03-23T14:39:16;9.07;;;4.25;;
20348;SDS011;10332;50.208;18.988;2023-03-23T14:41:51;6.20;;;3.65;;
20348;SDS011;10332;50.208;18.988;2023-03-23T14:44:29;10.52;;;3.85;;
20348;SDS011;10332;50.208;18.988;2023-03-23T14:47:03;5.93;;;3.63;;
20348;SDS011;10332;50.208;18.988;2023-03-23T14:49:37;4.97;;;3.60;;
20348;SDS011;10332;50.208;18.988;2023-03-23T14:52:12;10.07;;;4.00;;
20348;SDS011;10332;50.208;18.988;2023-03-23T14:54:41;6.32;;;3.80;;
20348;SDS011;10332;50.208;18.988;2023-03-23T14:57:12;8.88;;;5.63;;
20348;SDS011;10332;50.208;18.988;2023-03-23T15:00:11;12.13;;;7.35;;
20348;SDS011;10332;50.208;18.988;2023-03-23T15:02:49;8.32;;;4.35;;
20348;SDS011;10332;50.208;18.988;2023-03-23T15:05:34;8.65;;;4.50;;
20348;SDS011;10332;50.208;18.988;2023-03-23T15:08:08;9.48;;;5.22;;
20348;SDS011;10332;50.208;18.988;2023-03-23T15:10:51;10.02;;;6.30;;
20348;SDS011;10332;50.208;18.988;2023-03-23T15:13:23;9.38;;;5.43;;
20348;SDS011;10332;50.208;18.988;2023-03-23T15:15:50;9.02;;;4.95;;
20348;SDS011;10332;50.208;18.988;2023-03-23T15:18:29;13.10;;;5.68;;
20348;SDS011;10332;50.208;18.988;2023-03-23T15:21:07;9.20;;;5.78;;
20348;SDS011;10332;50.208;18.988;2023-03-23T15:23:55;8.90;;;4.97;;
20348;SDS011;10332;50.208;18.988;2023-03-23T15:29:00;11.60;;;5.97;;
20348;SDS011;10332;50.208;18.988;2023-03-23T15:31:40;12.13;;;6.05;;
20348;SDS011;10332;50.208;18.988;2023-03-23T15:34:18;12.02;;;5.95;;
20348;SDS011;10332;50.208;18.988;2023-03-23T15:36:59;13.05;;;6.15;;
20348;SDS011;10332;50.208;18.988;2023-03-23T15:39:30;11.63;;;6.10;;
20348;SDS011;10332;50.208;18.988;2023-03-23T15:41:58;11.48;;;5.75;;
20348;SDS011;10332;50.208;18.988;2023-03-23T15:44:32;14.23;;;6.32;;
20348;SDS011;10332;50.208;18.988;2023-03-23T15:47:15;10.65;;;5.50;;
20348;SDS011;10332;50.208;18.988;2023-03-23T15:49:46;12.90;;;6.68;;
20348;SDS011;10332;50.208;18.988;2023-03-23T15:52:24;11.90;;;6.32;;
20348;SDS011;10332;50.208;18.988;2023-03-23T15:54:51;13.85;;;6.25;;
20348;SDS011;10332;50.208;18.988;2023-03-23T15:57:17;11.70;;;5.88;;
20348;SDS011;10332;50.208;18.988;2023-03-23T15:59:43;12.95;;;6.28;;
20348;SDS011;10332;50.208;18.988;2023-03-23T16:02:18;12.07;;;6.15;;
20348;SDS011;10332;50.208;18.988;2023-03-23T16:04:50;9.35;;;5.32;;
20348;SDS011;10332;50.208;18.988;2023-03-23T16:07:22;11.00;;;6.30;;
20348;SDS011;10332;50.208;18.988;2023-03-23T16:09:50;6.35;;;3.45;;
20348;SDS011;10332;50.208;18.988;2023-03-23T16:12:17;7.35;;;3.97;;
20348;SDS011;10332;50.208;18.988;2023-03-23T16:14:48;6.43;;;3.88;;
20348;SDS011;10332;50.208;18.988;2023-03-23T16:17:16;6.32;;;3.63;;
20348;SDS011;10332;50.208;18.988;2023-03-23T16:19:47;9.35;;;4.43;;
20348;SDS011;10332;50.208;18.988;2023-03-23T16:22:15;6.13;;;3.75;;
20348;SDS011;10332;50.208;18.988;2023-03-23T16:24:44;7.32;;;3.90;;
20348;SDS011;10332;50.208;18.988;2023-03-23T16:27:11;6.55;;;4.40;;
20348;SDS011;10332;50.208;18.988;2023-03-23T16:29:40;6.60;;;4.25;;
20348;SDS011;10332;50.208;18.988;2023-03-23T16:32:28;8.40;;;3.95;;
20348;SDS011;10332;50.208;18.988;2023-03-23T16:34:56;8.05;;;5.03;;
20348;SDS011;10332;50.208;18.988;2023-03-23T16:37:23;10.13;;;6.18;;
20348;SDS011;10332;50.208;18.988;2023-03-23T16:39:51;12.98;;;7.35;;
20348;SDS011;10332;50.208;18.988;2023-03-23T16:42:19;16.42;;;7.25;;
20348;SDS011;10332;50.208;18.988;2023-03-23T16:44:46;13.30;;;7.57;;
20348;SDS011;10332;50.208;18.988;2023-03-23T16:47:16;12.02;;;7.25;;
20348;SDS011;10332;50.208;18.988;2023-03-23T16:49:51;16.58;;;8.57;;
20348;SDS011;10332;50.208;18.988;2023-03-23T16:52:19;14.35;;;7.78;;
20348;SDS011;10332;50.208;18.988;2023-03-23T16:54:47;16.25;;;8.40;;
20348;SDS011;10332;50.208;18.988;2023-03-23T16:57:14;13.88;;;8.15;;